createdAt,value
2023-07-01T00:00:47.541Z,49.47
2023-07-01T00:01:47.353Z,49.63
2023-07-01T00:02:47.405Z,46.57
2023-07-01T00:03:47.361Z,48.18
2023-07-01T00:04:47.362Z,46.73
2023-07-01T00:05:47.331Z,51.24
2023-07-01T00:06:47.316Z,47.21
2023-07-01T00:07:47.304Z,47.37
2023-07-01T00:08:47.315Z,47.37
2023-07-01T00:09:47.289Z,49.15
2023-07-01T00:10:47.545Z,53.01
2023-07-01T00:11:47.290Z,50.92
2023-07-01T00:12:47.283Z,48.66
2023-07-01T00:13:47.270Z,47.21
2023-07-01T00:14:47.265Z,46.89
2023-07-01T00:15:47.270Z,48.82
2023-07-01T00:16:47.317Z,52.21
2023-07-01T00:17:47.270Z,47.37
2023-07-01T00:18:47.517Z,49.15
2023-07-01T00:19:47.235Z,49.79
2023-07-01T00:20:47.545Z,53.66
2023-07-01T00:21:47.229Z,53.17
2023-07-01T00:22:47.226Z,48.02
2023-07-01T00:23:47.257Z,49.31
2023-07-01T00:24:47.199Z,48.98
2023-07-01T00:25:47.212Z,49.79
2023-07-01T00:26:47.196Z,49.79
2023-07-01T00:27:47.184Z,47.37
2023-07-01T00:28:47.191Z,49.31
2023-07-01T00:29:47.154Z,47.37
2023-07-01T00:30:47.334Z,50.11
2023-07-01T00:31:47.222Z,46.25
2023-07-01T00:32:47.153Z,48.98
2023-07-01T00:33:47.149Z,49.79
2023-07-01T00:34:47.124Z,48.66
2023-07-01T00:35:47.142Z,52.85
2023-07-01T00:36:47.113Z,48.82
2023-07-01T00:37:47.108Z,47.05
2023-07-01T00:38:47.109Z,47.21
2023-07-01T00:39:47.105Z,50.43
2023-07-01T00:40:47.315Z,49.47
2023-07-01T00:41:47.084Z,49.63
2023-07-01T00:42:47.082Z,48.82
2023-07-01T00:43:47.985Z,47.37
2023-07-01T00:44:47.059Z,47.53
2023-07-01T00:45:47.081Z,47.86
2023-07-01T00:46:47.079Z,48.02
2023-07-01T00:47:47.079Z,47.70
2023-07-01T00:48:47.033Z,49.31
2023-07-01T00:49:47.026Z,47.86
2023-07-01T00:50:47.293Z,47.37
2023-07-01T00:51:47.024Z,47.86
2023-07-01T00:52:47.016Z,48.18
2023-07-01T00:53:46.999Z,51.56
2023-07-01T00:54:46.993Z,48.98
2023-07-01T00:55:46.993Z,49.15
2023-07-01T00:56:47.116Z,46.89
2023-07-01T00:57:46.991Z,48.66
2023-07-01T00:58:46.963Z,47.53
2023-07-01T00:59:46.956Z,47.53
2023-07-01T01:00:47.130Z,47.70
2023-07-01T01:01:47.067Z,52.69
2023-07-01T01:02:47.062Z,48.34
2023-07-01T01:03:47.149Z,47.21
2023-07-01T01:04:46.946Z,49.15
2023-07-01T01:05:46.914Z,48.98
2023-07-01T01:06:46.903Z,48.50
2023-07-01T01:07:46.969Z,47.86
2023-07-01T01:08:46.938Z,47.05
2023-07-01T01:09:47.884Z,48.82
2023-07-01T01:10:47.107Z,50.92
2023-07-01T01:11:46.876Z,53.66
2023-07-01T01:12:46.875Z,49.47
2023-07-01T01:13:46.871Z,48.34
2023-07-01T01:14:46.860Z,53.01
2023-07-01T01:15:46.872Z,49.63
2023-07-01T01:16:46.849Z,47.86
2023-07-01T01:17:46.878Z,46.89
2023-07-01T01:18:46.820Z,51.72
2023-07-01T01:19:46.853Z,51.88
2023-07-01T01:20:47.153Z,49.95
2023-07-01T01:21:46.807Z,47.86
2023-07-01T01:22:54.814Z,50.60
2023-07-01T01:23:48.793Z,49.15
2023-07-01T01:24:46.835Z,47.86
2023-07-01T01:25:46.778Z,48.02
2023-07-01T01:26:46.771Z,52.05
2023-07-01T01:27:46.766Z,47.53
2023-07-01T01:28:47.788Z,49.95
2023-07-01T01:29:46.864Z,47.05
2023-07-01T01:30:47.078Z,50.92
2023-07-01T01:31:46.843Z,48.82
2023-07-01T01:32:46.818Z,46.57
2023-07-01T01:33:46.736Z,48.50
2023-07-01T01:34:46.721Z,50.60
2023-07-01T01:35:46.738Z,50.60
2023-07-01T01:36:46.708Z,48.66
2023-07-01T01:37:46.700Z,46.89
2023-07-01T01:38:46.716Z,46.73
2023-07-01T01:39:46.701Z,48.34
2023-07-01T01:40:46.813Z,47.05
2023-07-01T01:41:46.692Z,47.21
2023-07-01T01:42:46.673Z,50.11
2023-07-01T01:43:46.680Z,52.85
2023-07-01T01:44:46.669Z,48.98
2023-07-01T01:45:46.679Z,52.53
2023-07-01T01:46:46.724Z,48.82
2023-07-01T01:47:46.682Z,47.53
2023-07-01T01:48:46.666Z,48.50
2023-07-01T01:49:46.637Z,47.05
2023-07-01T01:50:46.837Z,47.70
2023-07-01T01:51:46.628Z,48.18
2023-07-01T01:52:46.625Z,48.98
2023-07-01T01:53:46.630Z,49.63
2023-07-01T01:54:46.601Z,48.34
2023-07-01T01:55:46.613Z,47.21
2023-07-01T01:56:46.596Z,46.57
2023-07-01T01:57:46.584Z,47.86
2023-07-01T01:58:46.607Z,46.89
2023-07-01T01:59:46.574Z,48.02
2023-07-01T02:00:46.827Z,47.37
2023-07-01T02:01:46.577Z,47.70
2023-07-01T02:02:46.658Z,47.53
2023-07-01T02:03:46.759Z,46.89
2023-07-01T02:04:46.716Z,47.70
2023-07-01T02:05:46.611Z,48.34
2023-07-01T02:06:46.535Z,48.34
2023-07-01T02:07:46.542Z,49.47
2023-07-01T02:08:46.532Z,48.98
2023-07-01T02:09:46.508Z,49.47
2023-07-01T02:10:46.642Z,47.21
2023-07-01T02:11:46.517Z,47.05
2023-07-01T02:12:46.494Z,46.41
2023-07-01T02:13:46.480Z,48.34
2023-07-01T02:14:46.476Z,48.34
2023-07-01T02:15:46.481Z,50.76
2023-07-01T02:16:46.498Z,50.43
2023-07-01T02:17:46.561Z,49.31
2023-07-01T02:18:46.457Z,49.95
2023-07-01T02:19:46.445Z,50.27
2023-07-01T02:20:46.896Z,49.15
2023-07-01T02:21:46.425Z,47.53
2023-07-01T02:22:46.448Z,47.53
2023-07-01T02:23:46.442Z,52.53
2023-07-01T02:24:46.417Z,48.02
2023-07-01T02:25:46.420Z,46.89
2023-07-01T02:26:46.414Z,47.70
2023-07-01T02:27:46.397Z,48.98
2023-07-01T02:28:46.390Z,51.40
2023-07-01T02:29:46.385Z,51.40
2023-07-01T02:30:46.655Z,52.37
2023-07-01T02:31:46.372Z,48.02
2023-07-01T02:32:46.381Z,49.63
2023-07-01T02:33:46.379Z,50.27
2023-07-01T02:34:46.342Z,47.21
2023-07-01T02:35:46.339Z,47.05
2023-07-01T02:36:46.340Z,47.70
2023-07-01T02:37:46.323Z,47.70
2023-07-01T02:38:46.331Z,49.47
2023-07-01T02:39:46.305Z,46.89
2023-07-01T02:40:47.565Z,48.50
2023-07-01T02:41:46.329Z,51.88
2023-07-01T02:42:46.300Z,53.33
2023-07-01T02:43:46.297Z,50.11
2023-07-01T02:44:46.286Z,50.92
2023-07-01T02:45:46.284Z,49.79
2023-07-01T02:46:46.332Z,49.63
2023-07-01T02:47:46.306Z,50.27
2023-07-01T02:48:46.255Z,51.88
2023-07-01T02:49:47.808Z,52.85
2023-07-01T02:50:47.332Z,53.50
2023-07-01T02:51:46.238Z,51.08
2023-07-01T02:52:46.263Z,53.50
2023-07-01T02:53:46.231Z,50.43
2023-07-01T02:54:46.216Z,48.34
2023-07-01T02:55:46.215Z,52.37
2023-07-01T02:56:46.202Z,50.76
2023-07-01T02:57:46.203Z,50.60
2023-07-01T02:58:46.196Z,52.21
2023-07-01T02:59:46.206Z,52.21
2023-07-01T03:00:46.573Z,53.66
2023-07-01T03:01:48.067Z,50.11
2023-07-01T03:02:46.197Z,51.08
2023-07-01T03:03:46.273Z,49.95
2023-07-01T03:04:46.214Z,51.56
2023-07-01T03:05:46.166Z,48.82
2023-07-01T03:06:46.146Z,51.72
2023-07-01T03:07:46.154Z,51.56
2023-07-01T03:08:46.135Z,51.88
2023-07-01T03:09:46.132Z,48.02
2023-07-01T03:10:46.301Z,49.63
2023-07-01T03:11:46.110Z,50.11
2023-07-01T03:12:46.118Z,47.70
2023-07-01T03:13:46.107Z,51.40
2023-07-01T03:14:46.114Z,52.21
2023-07-01T03:15:46.148Z,49.79
2023-07-01T03:16:46.171Z,48.82
2023-07-01T03:17:46.133Z,48.02
2023-07-01T03:18:46.075Z,51.56
2023-07-01T03:19:46.086Z,52.69
2023-07-01T03:20:46.344Z,52.69
2023-07-01T03:21:46.053Z,52.69
2023-07-01T03:22:46.049Z,47.53
2023-07-01T03:23:46.063Z,50.76
2023-07-01T03:24:46.030Z,49.47
2023-07-01T03:25:46.058Z,48.50
2023-07-01T03:26:46.039Z,50.60
2023-07-01T03:27:46.039Z,54.46
2023-07-01T03:28:46.023Z,49.79
2023-07-01T03:29:46.003Z,52.69
2023-07-01T03:30:46.300Z,52.05
2023-07-01T03:31:46.044Z,49.31
2023-07-01T03:32:46.020Z,53.82
2023-07-01T03:33:45.982Z,52.69
2023-07-01T03:34:45.974Z,53.98
2023-07-01T03:35:46.006Z,53.01
2023-07-01T03:36:45.997Z,50.11
2023-07-01T03:37:46.010Z,49.47
2023-07-01T03:38:46.901Z,52.37
2023-07-01T03:39:45.948Z,49.47
2023-07-01T03:40:46.169Z,49.47
2023-07-01T03:41:45.923Z,53.98
2023-07-01T03:42:45.982Z,52.05
2023-07-01T03:43:45.938Z,52.53
2023-07-01T03:44:45.949Z,48.66
2023-07-01T03:45:45.964Z,51.08
2023-07-01T03:46:45.896Z,52.69
2023-07-01T03:47:46.083Z,52.21
2023-07-01T03:48:45.895Z,53.01
2023-07-01T03:49:45.935Z,51.72
2023-07-01T03:50:46.255Z,51.08
2023-07-01T03:51:45.868Z,53.01
2023-07-01T03:52:45.865Z,53.01
2023-07-01T03:53:45.869Z,50.43
2023-07-01T03:54:45.850Z,53.66
2023-07-01T03:55:45.903Z,52.05
2023-07-01T03:56:48.340Z,51.72
2023-07-01T03:57:45.819Z,54.30
2023-07-01T03:58:45.822Z,54.62
2023-07-01T03:59:45.839Z,49.63
2023-07-01T04:00:46.089Z,50.27
2023-07-01T04:01:45.852Z,50.76
2023-07-01T04:02:46.888Z,52.85
2023-07-01T04:03:45.897Z,52.21
2023-07-01T04:04:45.860Z,51.88
2023-07-01T04:05:45.796Z,53.17
2023-07-01T04:06:45.772Z,51.72
2023-07-01T04:07:45.770Z,50.92
2023-07-01T04:08:45.774Z,50.43
2023-07-01T04:09:45.779Z,50.60
2023-07-01T04:10:45.892Z,50.27
2023-07-01T04:11:45.767Z,51.88
2023-07-01T04:12:45.737Z,50.60
2023-07-01T04:13:45.728Z,51.72
2023-07-01T04:14:45.723Z,51.24
2023-07-01T04:15:45.710Z,52.37
2023-07-01T04:16:45.785Z,50.60
2023-07-01T04:17:45.796Z,51.24
2023-07-01T04:18:45.705Z,48.66
2023-07-01T04:19:45.684Z,50.76
2023-07-01T04:20:45.988Z,52.37
2023-07-01T04:21:45.684Z,52.69
2023-07-01T04:22:45.663Z,51.72
2023-07-01T04:23:45.684Z,54.46
2023-07-01T04:24:45.650Z,53.50
2023-07-01T04:25:45.652Z,53.01
2023-07-01T04:26:45.656Z,54.30
2023-07-01T04:27:45.636Z,54.14
2023-07-01T04:28:45.627Z,54.14
2023-07-01T04:29:45.616Z,52.37
2023-07-01T04:30:45.901Z,51.88
2023-07-01T04:31:45.698Z,53.66
2023-07-01T04:32:45.626Z,55.11
2023-07-01T04:33:45.575Z,56.56
2023-07-01T04:34:46.588Z,54.30
2023-07-01T04:35:45.573Z,53.17
2023-07-01T04:36:45.551Z,54.79
2023-07-01T04:37:46.572Z,54.14
2023-07-01T04:38:45.562Z,54.14
2023-07-01T04:39:45.553Z,54.79
2023-07-01T04:40:45.900Z,53.82
2023-07-01T04:41:45.548Z,54.46
2023-07-01T04:42:45.522Z,56.56
2023-07-01T04:43:45.519Z,56.24
2023-07-01T04:44:45.512Z,53.50
2023-07-01T04:45:45.497Z,53.01
2023-07-01T04:46:45.551Z,54.46
2023-07-01T04:47:45.535Z,53.98
2023-07-01T04:48:45.470Z,52.69
2023-07-01T04:49:45.468Z,56.24
2023-07-01T04:50:45.885Z,52.53
2023-07-01T04:51:45.454Z,53.82
2023-07-01T04:52:45.451Z,52.85
2023-07-01T04:53:45.461Z,52.37
2023-07-01T04:54:45.419Z,55.75
2023-07-01T04:55:45.440Z,53.98
2023-07-01T04:56:45.419Z,51.08
2023-07-01T04:57:45.414Z,53.33
2023-07-01T04:58:45.415Z,52.85
2023-07-01T04:59:45.403Z,51.72
2023-07-01T05:00:45.606Z,53.33
2023-07-01T05:01:45.425Z,54.30
2023-07-01T05:02:45.535Z,53.50
2023-07-01T05:03:45.407Z,52.85
2023-07-01T05:04:45.417Z,55.27
2023-07-01T05:05:45.348Z,53.50
2023-07-01T05:06:45.350Z,53.82
2023-07-01T05:07:45.409Z,52.37
2023-07-01T05:08:45.326Z,54.79
2023-07-01T05:09:45.324Z,51.72
2023-07-01T05:10:45.594Z,52.21
2023-07-01T05:11:45.306Z,51.56
2023-07-01T05:12:45.304Z,55.59
2023-07-01T05:13:46.298Z,49.31
2023-07-01T05:14:45.274Z,52.85
2023-07-01T05:15:45.293Z,53.98
2023-07-01T05:16:45.316Z,51.72
2023-07-01T05:17:45.299Z,52.85
2023-07-01T05:18:45.239Z,52.85
2023-07-01T05:19:45.237Z,54.14
2023-07-01T05:20:45.788Z,52.21
2023-07-01T05:21:46.221Z,50.76
2023-07-01T05:22:45.218Z,51.56
2023-07-01T05:23:45.207Z,53.66
2023-07-01T05:24:45.205Z,54.30
2023-07-01T05:25:45.204Z,54.95
2023-07-01T05:26:45.195Z,53.66
2023-07-01T05:27:45.205Z,55.27
2023-07-01T05:28:45.177Z,54.46
2023-07-01T05:29:45.166Z,50.11
2023-07-01T05:30:45.630Z,51.24
2023-07-01T05:31:45.185Z,53.33
2023-07-01T05:32:45.203Z,53.82
2023-07-01T05:33:45.135Z,54.46
2023-07-01T05:34:45.131Z,54.14
2023-07-01T05:35:45.150Z,51.08
2023-07-01T05:36:45.127Z,53.17
2023-07-01T05:37:45.113Z,54.14
2023-07-01T05:38:45.101Z,54.62
2023-07-01T05:39:45.093Z,53.01
2023-07-01T05:40:45.486Z,53.82
2023-07-01T05:41:45.176Z,54.79
2023-07-01T05:42:45.093Z,52.85
2023-07-01T05:43:45.065Z,51.40
2023-07-01T05:44:45.064Z,52.05
2023-07-01T05:45:45.051Z,53.82
2023-07-01T05:46:45.094Z,51.40
2023-07-01T05:47:45.054Z,53.17
2023-07-01T05:48:45.037Z,53.01
2023-07-01T05:49:45.013Z,52.53
2023-07-01T05:50:45.413Z,51.08
2023-07-01T05:51:45.009Z,52.53
2023-07-01T05:52:45.037Z,50.11
2023-07-01T05:53:44.990Z,54.30
2023-07-01T05:54:44.988Z,53.17
2023-07-01T05:55:44.999Z,49.47
2023-07-01T05:56:44.983Z,51.72
2023-07-01T05:57:44.955Z,52.21
2023-07-01T05:58:44.984Z,51.72
2023-07-01T05:59:44.970Z,50.60
2023-07-01T06:00:45.246Z,50.92
2023-07-01T06:01:44.981Z,51.88
2023-07-01T06:02:44.946Z,52.21
2023-07-01T06:03:44.964Z,51.88
2023-07-01T06:04:44.925Z,52.53
2023-07-01T06:05:44.900Z,51.24
2023-07-01T06:06:44.880Z,51.08
2023-07-01T06:07:44.892Z,51.56
2023-07-01T06:08:44.880Z,51.24
2023-07-01T06:09:44.877Z,51.72
2023-07-01T06:10:46.171Z,52.21
2023-07-01T06:11:44.914Z,49.95
2023-07-01T06:12:44.849Z,49.79
2023-07-01T06:13:44.838Z,49.63
2023-07-01T06:14:44.865Z,51.08
2023-07-01T06:15:44.863Z,48.98
2023-07-01T06:16:44.817Z,50.60
2023-07-01T06:17:44.878Z,51.24
2023-07-01T06:18:44.844Z,51.08
2023-07-01T06:19:44.792Z,51.24
2023-07-01T06:20:45.021Z,51.72
2023-07-01T06:21:44.774Z,52.69
2023-07-01T06:22:44.799Z,53.98
2023-07-01T06:23:44.783Z,48.98
2023-07-01T06:24:44.768Z,51.72
2023-07-01T06:25:45.764Z,52.05
2023-07-01T06:26:44.748Z,50.60
2023-07-01T06:27:44.748Z,48.82
2023-07-01T06:28:44.759Z,50.60
2023-07-01T06:29:44.746Z,51.88
2023-07-01T06:30:45.019Z,53.17
2023-07-01T06:31:44.884Z,50.11
2023-07-01T06:32:44.840Z,49.31
2023-07-01T06:33:44.757Z,51.24
2023-07-01T06:34:44.735Z,51.24
2023-07-01T06:35:44.691Z,51.40
2023-07-01T06:36:44.718Z,50.92
2023-07-01T06:37:44.717Z,53.17
2023-07-01T06:38:44.674Z,51.24
2023-07-01T06:39:44.676Z,51.40
2023-07-01T06:40:44.828Z,53.82
2023-07-01T06:41:44.681Z,50.76
2023-07-01T06:42:44.655Z,51.72
2023-07-01T06:43:44.655Z,53.33
2023-07-01T06:44:44.625Z,51.88
2023-07-01T06:45:44.744Z,52.53
2023-07-01T06:46:44.628Z,52.37
2023-07-01T06:47:44.659Z,51.72
2023-07-01T06:48:44.609Z,53.33
2023-07-01T06:49:44.599Z,53.33
2023-07-01T06:50:44.975Z,52.37
2023-07-01T06:51:44.604Z,54.62
2023-07-01T06:52:44.592Z,52.05
2023-07-01T06:53:44.578Z,51.72
2023-07-01T06:54:46.197Z,52.21
2023-07-01T06:55:44.557Z,51.72
2023-07-01T06:56:44.563Z,53.01
2023-07-01T06:57:44.548Z,53.01
2023-07-01T06:58:44.574Z,53.82
2023-07-01T06:59:44.530Z,51.72
2023-07-01T07:00:44.816Z,50.76
2023-07-01T07:01:44.616Z,50.43
2023-07-01T07:02:44.554Z,52.05
2023-07-01T07:03:44.686Z,52.21
2023-07-01T07:04:44.587Z,52.69
2023-07-01T07:05:45.382Z,55.27
2023-07-01T07:06:44.498Z,49.79
2023-07-01T07:07:44.500Z,52.37
2023-07-01T07:08:44.498Z,53.17
2023-07-01T07:09:44.510Z,54.30
2023-07-01T07:10:44.797Z,55.91
2023-07-01T07:11:44.455Z,53.01
2023-07-01T07:12:44.471Z,54.46
2023-07-01T07:13:44.436Z,50.92
2023-07-01T07:14:44.462Z,52.53
2023-07-01T07:15:44.448Z,52.53
2023-07-01T07:16:44.450Z,54.95
2023-07-01T07:17:44.505Z,53.17
2023-07-01T07:18:44.548Z,52.53
2023-07-01T07:19:44.443Z,53.98
2023-07-01T07:20:44.552Z,53.50
2023-07-01T07:21:44.404Z,50.60
2023-07-01T07:22:44.398Z,55.75
2023-07-01T07:23:44.378Z,53.82
2023-07-01T07:24:44.389Z,50.76
2023-07-01T07:25:44.362Z,50.11
2023-07-01T07:26:44.365Z,54.30
2023-07-01T07:27:44.370Z,53.82
2023-07-01T07:28:44.378Z,54.30
2023-07-01T07:29:44.341Z,55.43
2023-07-01T07:30:44.391Z,51.88
2023-07-01T07:31:44.402Z,55.11
2023-07-01T07:32:44.594Z,53.82
2023-07-01T07:33:44.330Z,53.66
2023-07-01T07:34:44.323Z,53.82
2023-07-01T07:35:44.321Z,52.37
2023-07-01T07:36:44.297Z,52.21
2023-07-01T07:37:44.286Z,53.82
2023-07-01T07:38:44.286Z,54.14
2023-07-01T07:39:44.268Z,52.21
2023-07-01T07:40:44.350Z,53.82
2023-07-01T07:41:44.265Z,52.85
2023-07-01T07:42:44.256Z,54.62
2023-07-01T07:43:44.257Z,56.56
2023-07-01T07:44:44.267Z,55.27
2023-07-01T07:45:44.231Z,52.37
2023-07-01T07:46:44.266Z,52.69
2023-07-01T07:47:44.287Z,54.95
2023-07-01T07:48:44.237Z,54.30
2023-07-01T07:49:44.208Z,53.82
2023-07-01T07:50:44.234Z,53.33
2023-07-01T07:51:44.192Z,52.53
2023-07-01T07:52:44.265Z,52.69
2023-07-01T07:53:44.202Z,55.11
2023-07-01T07:54:44.162Z,53.50
2023-07-01T07:55:44.163Z,54.46
2023-07-01T07:56:44.158Z,54.14
2023-07-01T07:57:44.138Z,53.50
2023-07-01T07:58:44.148Z,53.17
2023-07-01T07:59:44.174Z,51.72
2023-07-01T08:00:44.333Z,52.37
2023-07-01T08:01:44.169Z,54.30
2023-07-01T08:02:44.122Z,55.43
2023-07-01T08:03:44.189Z,55.75
2023-07-01T08:04:44.212Z,56.88
2023-07-01T08:05:44.097Z,52.85
2023-07-01T08:06:44.096Z,54.79
2023-07-01T08:07:44.084Z,53.50
2023-07-01T08:08:44.088Z,54.79
2023-07-01T08:09:44.061Z,55.11
2023-07-01T08:10:44.163Z,51.56
2023-07-01T08:11:44.041Z,53.98
2023-07-01T08:12:44.050Z,56.56
2023-07-01T08:13:44.063Z,54.95
2023-07-01T08:14:44.027Z,54.79
2023-07-01T08:15:44.022Z,55.27
2023-07-01T08:16:44.039Z,54.79
2023-07-01T08:17:44.069Z,53.33
2023-07-01T08:18:44.073Z,53.66
2023-07-01T08:19:43.998Z,56.40
2023-07-01T08:20:43.969Z,56.24
2023-07-01T08:21:43.960Z,55.11
2023-07-01T08:22:43.980Z,55.91
2023-07-01T08:23:43.960Z,55.91
2023-07-01T08:24:43.953Z,55.43
2023-07-01T08:25:43.941Z,55.11
2023-07-01T08:26:43.931Z,53.98
2023-07-01T08:27:43.945Z,54.30
2023-07-01T08:28:43.922Z,56.88
2023-07-01T08:29:43.907Z,56.40
2023-07-01T08:30:43.908Z,55.75
2023-07-01T08:31:43.921Z,53.17
2023-07-01T08:32:43.906Z,56.56
2023-07-01T08:33:43.876Z,56.24
2023-07-01T08:34:43.886Z,57.04
2023-07-01T08:35:44.285Z,55.27
2023-07-01T08:36:43.861Z,56.24
2023-07-01T08:37:43.863Z,56.40
2023-07-01T08:38:43.849Z,55.59
2023-07-01T08:39:43.879Z,55.75
2023-07-01T08:40:43.865Z,57.20
2023-07-01T08:41:43.826Z,54.95
2023-07-01T08:42:43.834Z,56.07
2023-07-01T08:43:43.814Z,55.27
2023-07-01T08:44:43.799Z,57.04
2023-07-01T08:45:43.801Z,57.52
2023-07-01T08:46:43.816Z,55.43
2023-07-01T08:47:43.882Z,56.24
2023-07-01T08:48:44.768Z,57.04
2023-07-01T08:49:43.764Z,55.27
2023-07-01T08:50:43.763Z,57.20
2023-07-01T08:51:43.749Z,56.72
2023-07-01T08:52:43.788Z,57.69
2023-07-01T08:53:43.733Z,57.04
2023-07-01T08:54:43.740Z,56.72
2023-07-01T08:55:43.729Z,56.88
2023-07-01T08:56:43.749Z,58.17
2023-07-01T08:57:43.739Z,57.04
2023-07-01T08:58:43.739Z,58.49
2023-07-01T08:59:43.740Z,55.91
2023-07-01T09:00:43.737Z,57.52
2023-07-01T09:01:43.707Z,58.33
2023-07-01T09:02:43.728Z,57.04
2023-07-01T09:03:43.743Z,56.40
2023-07-01T09:04:43.711Z,58.97
2023-07-01T09:05:43.654Z,57.20
2023-07-01T09:06:43.655Z,55.75
2023-07-01T09:07:43.649Z,57.20
2023-07-01T09:08:43.630Z,57.04
2023-07-01T09:09:43.630Z,55.91
2023-07-01T09:10:43.640Z,56.24
2023-07-01T09:11:43.616Z,54.95
2023-07-01T09:12:43.651Z,55.91
2023-07-01T09:13:43.604Z,54.95
2023-07-01T09:14:43.612Z,56.40
2023-07-01T09:15:43.609Z,55.59
2023-07-01T09:16:43.685Z,57.04
2023-07-01T09:17:44.608Z,57.20
2023-07-01T09:18:43.591Z,56.07
2023-07-01T09:19:43.567Z,56.40
2023-07-01T09:20:43.567Z,54.62
2023-07-01T09:21:43.547Z,53.98
2023-07-01T09:22:43.576Z,55.27
2023-07-01T09:23:43.543Z,55.27
2023-07-01T09:24:43.539Z,54.30
2023-07-01T09:25:43.514Z,53.01
2023-07-01T09:26:43.531Z,54.30
2023-07-01T09:27:43.721Z,54.62
2023-07-01T09:28:43.515Z,56.24
2023-07-01T09:29:43.511Z,55.11
2023-07-01T09:30:43.479Z,53.17
2023-07-01T09:31:43.514Z,52.85
2023-07-01T09:32:43.516Z,54.46
2023-07-01T09:33:43.484Z,53.82
2023-07-01T09:34:43.450Z,54.62
2023-07-01T09:35:43.448Z,57.04
2023-07-01T09:36:43.455Z,53.33
2023-07-01T09:37:43.437Z,55.59
2023-07-01T09:38:43.436Z,54.79
2023-07-01T09:39:43.418Z,53.82
2023-07-01T09:40:43.426Z,55.11
2023-07-01T09:41:43.407Z,51.72
2023-07-01T09:42:43.400Z,55.75
2023-07-01T09:43:43.421Z,54.14
2023-07-01T09:44:43.396Z,56.72
2023-07-01T09:45:43.391Z,58.65
2023-07-01T09:46:43.380Z,55.59
2023-07-01T09:47:43.409Z,56.56
2023-07-01T09:48:43.406Z,54.79
2023-07-01T09:49:43.360Z,54.30
2023-07-01T09:50:43.368Z,54.30
2023-07-01T09:51:43.354Z,54.14
2023-07-01T09:52:43.319Z,54.95
2023-07-01T09:53:43.323Z,54.79
2023-07-01T09:54:43.411Z,55.91
2023-07-01T09:55:43.322Z,56.24
2023-07-01T09:56:43.297Z,55.91
2023-07-01T09:57:43.287Z,54.14
2023-07-01T09:58:43.299Z,54.95
2023-07-01T09:59:43.304Z,54.62
2023-07-01T10:00:43.286Z,55.27
2023-07-01T10:01:43.291Z,56.56
2023-07-01T10:02:43.483Z,55.11
2023-07-01T10:03:43.361Z,55.59
2023-07-01T10:04:43.323Z,55.91
2023-07-01T10:05:43.260Z,55.11
2023-07-01T10:06:43.239Z,55.59
2023-07-01T10:07:43.229Z,55.59
2023-07-01T10:08:43.211Z,55.59
2023-07-01T10:09:43.222Z,55.43
2023-07-01T10:10:43.215Z,55.59
2023-07-01T10:11:43.205Z,50.76
2023-07-01T10:12:43.206Z,54.30
2023-07-01T10:13:43.201Z,56.07
2023-07-01T10:14:43.210Z,56.56
2023-07-01T10:15:43.209Z,54.30
2023-07-01T10:16:43.222Z,54.95
2023-07-01T10:17:43.212Z,55.91
2023-07-01T10:18:43.180Z,53.66
2023-07-01T10:19:43.149Z,57.36
2023-07-01T10:20:43.166Z,56.07
2023-07-01T10:21:43.130Z,55.59
2023-07-01T10:22:43.154Z,54.30
2023-07-01T10:23:43.117Z,55.91
2023-07-01T10:24:43.105Z,55.91
2023-07-01T10:25:43.115Z,54.46
2023-07-01T10:26:43.116Z,57.04
2023-07-01T10:27:43.102Z,54.79
2023-07-01T10:28:44.131Z,55.43
2023-07-01T10:29:43.087Z,55.75
2023-07-01T10:30:43.134Z,55.59
2023-07-01T10:31:43.070Z,54.62
2023-07-01T10:32:43.110Z,56.07
2023-07-01T10:33:43.054Z,55.75
2023-07-01T10:34:43.050Z,53.50
2023-07-01T10:35:43.036Z,56.40
2023-07-01T10:36:43.033Z,55.75
2023-07-01T10:37:43.038Z,54.14
2023-07-01T10:38:43.047Z,54.95
2023-07-01T10:39:43.083Z,53.82
2023-07-01T10:40:43.014Z,52.85
2023-07-01T10:41:42.997Z,54.95
2023-07-01T10:42:42.979Z,54.79
2023-07-01T10:43:42.991Z,54.30
2023-07-01T10:44:42.962Z,53.66
2023-07-01T10:45:42.966Z,55.75
2023-07-01T10:46:42.986Z,55.91
2023-07-01T10:47:42.964Z,54.14
2023-07-01T10:48:42.964Z,55.11
2023-07-01T10:49:42.936Z,55.27
2023-07-01T10:50:42.932Z,54.79
2023-07-01T10:51:42.924Z,55.75
2023-07-01T10:52:42.908Z,56.56
2023-07-01T10:53:42.934Z,55.59
2023-07-01T10:54:42.891Z,54.30
2023-07-01T10:55:42.899Z,54.46
2023-07-01T10:56:42.901Z,54.46
2023-07-01T10:57:42.880Z,53.82
2023-07-01T10:58:42.937Z,53.98
2023-07-01T10:59:43.862Z,54.14
2023-07-01T11:00:42.844Z,53.33
2023-07-01T11:01:42.914Z,53.33
2023-07-01T11:02:43.063Z,61.07
2023-07-01T11:03:42.949Z,51.88
2023-07-01T11:04:42.922Z,52.53
2023-07-01T11:05:42.811Z,52.37
2023-07-01T11:06:42.817Z,55.91
2023-07-01T11:07:43.069Z,55.75
2023-07-01T11:08:42.808Z,55.11
2023-07-01T11:09:42.787Z,56.40
2023-07-01T11:10:42.775Z,54.46
2023-07-01T11:11:42.788Z,55.43
2023-07-01T11:12:43.943Z,55.75
2023-07-01T11:13:42.791Z,54.46
2023-07-01T11:14:42.763Z,56.56
2023-07-01T11:15:42.748Z,54.79
2023-07-01T11:16:42.814Z,54.30
2023-07-01T11:17:42.750Z,56.72
2023-07-01T11:18:42.741Z,54.62
2023-07-01T11:19:42.732Z,55.75
2023-07-01T11:20:42.713Z,57.85
2023-07-01T11:21:42.711Z,55.75
2023-07-01T11:22:42.705Z,55.59
2023-07-01T11:23:42.708Z,55.27
2023-07-01T11:24:42.699Z,55.75
2023-07-01T11:25:42.682Z,56.56
2023-07-01T11:26:42.671Z,55.43
2023-07-01T11:27:42.697Z,52.53
2023-07-01T11:28:42.673Z,55.27
2023-07-01T11:29:42.660Z,54.79
2023-07-01T11:30:42.682Z,55.59
2023-07-01T11:31:42.710Z,53.50
2023-07-01T11:32:42.702Z,54.30
2023-07-01T11:33:42.623Z,53.98
2023-07-01T11:34:42.650Z,55.91
2023-07-01T11:35:42.636Z,54.46
2023-07-01T11:36:42.596Z,57.36
2023-07-01T11:37:42.649Z,55.27
2023-07-01T11:38:42.587Z,57.85
2023-07-01T11:39:42.576Z,56.72
2023-07-01T11:40:42.587Z,55.11
2023-07-01T11:41:42.559Z,58.01
2023-07-01T11:42:42.552Z,56.07
2023-07-01T11:43:42.561Z,56.24
2023-07-01T11:44:42.543Z,57.52
2023-07-01T11:45:42.546Z,55.59
2023-07-01T11:46:42.536Z,56.56
2023-07-01T11:47:42.566Z,55.43
2023-07-01T11:48:42.529Z,55.91
2023-07-01T11:49:42.537Z,52.21
2023-07-01T11:50:42.496Z,54.79
2023-07-01T11:51:42.515Z,56.56
2023-07-01T11:52:42.485Z,55.91
2023-07-01T11:53:42.504Z,56.24
2023-07-01T11:54:42.481Z,56.56
2023-07-01T11:55:42.498Z,56.56
2023-07-01T11:56:42.476Z,55.75
2023-07-01T11:57:42.460Z,53.66
2023-07-01T11:58:49.559Z,56.07
2023-07-01T11:59:44.446Z,54.79
2023-07-01T12:00:42.435Z,55.11
2023-07-01T12:01:42.460Z,54.79
2023-07-01T12:02:42.460Z,53.98
2023-07-01T12:03:42.434Z,55.91
2023-07-01T12:04:42.500Z,53.98
2023-07-01T12:05:42.432Z,54.95
2023-07-01T12:06:42.405Z,53.82
2023-07-01T12:07:42.392Z,54.95
2023-07-01T12:08:42.544Z,55.75
2023-07-01T12:09:42.515Z,55.43
2023-07-01T12:10:42.371Z,55.75
2023-07-01T12:11:42.370Z,56.24
2023-07-01T12:12:42.353Z,54.30
2023-07-01T12:13:42.353Z,55.91
2023-07-01T12:14:42.355Z,55.43
2023-07-01T12:15:42.377Z,55.75
2023-07-01T12:16:42.327Z,55.75
2023-07-01T12:17:42.346Z,54.95
2023-07-01T12:18:42.329Z,56.72
2023-07-01T12:19:42.317Z,56.40
2023-07-01T12:20:42.310Z,56.88
2023-07-01T12:21:42.307Z,56.40
2023-07-01T12:22:43.315Z,55.27
2023-07-01T12:23:42.296Z,52.85
2023-07-01T12:24:42.277Z,54.62
2023-07-01T12:25:42.269Z,55.27
2023-07-01T12:26:42.312Z,56.40
2023-07-01T12:27:42.260Z,56.07
2023-07-01T12:28:42.366Z,55.91
2023-07-01T12:29:42.244Z,57.20
2023-07-01T12:30:42.242Z,56.72
2023-07-01T12:31:42.311Z,56.24
2023-07-01T12:32:42.325Z,53.17
2023-07-01T12:33:42.217Z,56.24
2023-07-01T12:34:42.214Z,55.75
2023-07-01T12:35:44.448Z,55.91
2023-07-01T12:36:43.203Z,56.88
2023-07-01T12:37:42.228Z,56.72
2023-07-01T12:38:42.188Z,54.95
2023-07-01T12:39:42.178Z,57.04
2023-07-01T12:40:42.165Z,55.59
2023-07-01T12:41:43.812Z,56.24
2023-07-01T12:42:43.161Z,55.75
2023-07-01T12:43:42.158Z,55.75
2023-07-01T12:44:42.144Z,57.04
2023-07-01T12:45:42.187Z,55.75
2023-07-01T12:46:42.152Z,55.27
2023-07-01T12:47:42.145Z,55.11
2023-07-01T12:48:42.112Z,55.75
2023-07-01T12:49:42.106Z,55.75
2023-07-01T12:50:42.099Z,55.11
2023-07-01T12:51:42.184Z,55.27
2023-07-01T12:52:42.127Z,55.11